sensor_id;sensor_type;location;lat;lon;timestamp;temperature;humidity
66576;SHT31;53428;47.686;16.584;2022-12-18T00:04:29;-2.66;93.25
66576;SHT31;53428;47.686;16.584;2022-12-18T00:09:28;-2.72;93.42
66576;SHT31;53428;47.686;16.584;2022-12-18T00:14:28;-2.50;92.91
66576;SHT31;53428;47.686;16.584;2022-12-18T00:19:27;-2.47;92.13
66576;SHT31;53428;47.686;16.584;2022-12-18T00:24:26;-2.55;91.66
66576;SHT31;53428;47.686;16.584;2022-12-18T00:29:25;-2.65;91.62
66576;SHT31;53428;47.686;16.584;2022-12-18T00:34:25;-2.75;91.56
66576;SHT31;53428;47.686;16.584;2022-12-18T00:39:24;-2.85;91.89
66576;SHT31;53428;47.686;16.584;2022-12-18T00:44:23;-2.82;92.09
66576;SHT31;53428;47.686;16.584;2022-12-18T00:49:22;-2.71;90.37
66576;SHT31;53428;47.686;16.584;2022-12-18T00:54:22;-2.76;90.05
66576;SHT31;53428;47.686;16.584;2022-12-18T00:59:21;-2.90;89.82
66576;SHT31;53428;47.686;16.584;2022-12-18T01:04:20;-2.95;90.22
66576;SHT31;53428;47.686;16.584;2022-12-18T01:09:20;-2.99;89.98
66576;SHT31;53428;47.686;16.584;2022-12-18T01:14:19;-2.92;89.66
66576;SHT31;53428;47.686;16.584;2022-12-18T01:19:18;-3.14;90.01
66576;SHT31;53428;47.686;16.584;2022-12-18T01:24:18;-3.17;90.47
66576;SHT31;53428;47.686;16.584;2022-12-18T01:29:17;-3.27;90.64
66576;SHT31;53428;47.686;16.584;2022-12-18T01:34:16;-3.07;90.17
66576;SHT31;53428;47.686;16.584;2022-12-18T01:39:16;-3.14;90.39
66576;SHT31;53428;47.686;16.584;2022-12-18T01:49:52;-3.31;90.70
66576;SHT31;53428;47.686;16.584;2022-12-18T01:54:53;-3.59;92.31
66576;SHT31;53428;47.686;16.584;2022-12-18T01:59:59;-3.98;91.93
66576;SHT31;53428;47.686;16.584;2022-12-18T02:05:00;-4.17;93.76
66576;SHT31;53428;47.686;16.584;2022-12-18T02:15:39;-4.34;93.56
66576;SHT31;53428;47.686;16.584;2022-12-18T02:20:47;-4.30;94.45
66576;SHT31;53428;47.686;16.584;2022-12-18T02:31:08;-3.98;93.82
66576;SHT31;53428;47.686;16.584;2022-12-18T02:36:10;-4.03;93.53
66576;SHT31;53428;47.686;16.584;2022-12-18T02:41:13;-4.36;93.86
66576;SHT31;53428;47.686;16.584;2022-12-18T02:46:28;-4.30;93.78
66576;SHT31;53428;47.686;16.584;2022-12-18T02:51:37;-4.17;94.23
66576;SHT31;53428;47.686;16.584;2022-12-18T02:56:46;-4.47;94.34
66576;SHT31;53428;47.686;16.584;2022-12-18T03:07:01;-4.38;94.84
66576;SHT31;53428;47.686;16.584;2022-12-18T03:12:10;-4.50;94.57
66576;SHT31;53428;47.686;16.584;2022-12-18T03:17:25;-4.48;93.63
66576;SHT31;53428;47.686;16.584;2022-12-18T03:22:30;-4.61;94.31
66576;SHT31;53428;47.686;16.584;2022-12-18T03:27:31;-4.43;94.01
66576;SHT31;53428;47.686;16.584;2022-12-18T03:32:41;-4.53;93.98
66576;SHT31;53428;47.686;16.584;2022-12-18T03:37:42;-4.65;93.98
66576;SHT31;53428;47.686;16.584;2022-12-18T03:58:18;-4.97;94.82
66576;SHT31;53428;47.686;16.584;2022-12-18T04:03:19;-5.02;94.46
66576;SHT31;53428;47.686;16.584;2022-12-18T04:08:20;-5.17;94.90
66576;SHT31;53428;47.686;16.584;2022-12-18T04:13:34;-5.14;95.12
66576;SHT31;53428;47.686;16.584;2022-12-18T04:18:34;-4.97;95.23
66576;SHT31;53428;47.686;16.584;2022-12-18T04:23:33;-4.84;95.16
66576;SHT31;53428;47.686;16.584;2022-12-18T04:28:32;-4.68;94.67
66576;SHT31;53428;47.686;16.584;2022-12-18T04:33:32;-4.71;94.48
66576;SHT31;53428;47.686;16.584;2022-12-18T04:38:32;-4.85;94.52
66576;SHT31;53428;47.686;16.584;2022-12-18T04:43:31;-4.95;94.49
66576;SHT31;53428;47.686;16.584;2022-12-18T04:48:32;-5.10;95.01
66576;SHT31;53428;47.686;16.584;2022-12-18T04:53:31;-5.12;95.27
66576;SHT31;53428;47.686;16.584;2022-12-18T04:58:30;-5.28;95.10
66576;SHT31;53428;47.686;16.584;2022-12-18T05:03:30;-5.53;95.21
66576;SHT31;53428;47.686;16.584;2022-12-18T05:08:29;-5.75;96.12
66576;SHT31;53428;47.686;16.584;2022-12-18T05:13:29;-5.79;96.18
66576;SHT31;53428;47.686;16.584;2022-12-18T05:18:29;-5.60;96.37
66576;SHT31;53428;47.686;16.584;2022-12-18T05:23:28;-5.81;96.32
66576;SHT31;53428;47.686;16.584;2022-12-18T05:28:29;-5.78;96.54
66576;SHT31;53428;47.686;16.584;2022-12-18T05:33:31;-5.88;96.29
66576;SHT31;53428;47.686;16.584;2022-12-18T05:38:32;-5.91;96.97
66576;SHT31;53428;47.686;16.584;2022-12-18T05:43:34;-5.68;96.74
66576;SHT31;53428;47.686;16.584;2022-12-18T05:48:34;-5.74;96.75
66576;SHT31;53428;47.686;16.584;2022-12-18T05:53:35;-5.67;96.91
66576;SHT31;53428;47.686;16.584;2022-12-18T05:58:34;-5.67;96.74
66576;SHT31;53428;47.686;16.584;2022-12-18T06:03:34;-5.71;96.52
66576;SHT31;53428;47.686;16.584;2022-12-18T06:08:33;-5.86;96.15
66576;SHT31;53428;47.686;16.584;2022-12-18T06:13:32;-5.91;97.10
66576;SHT31;53428;47.686;16.584;2022-12-18T06:18:32;-5.74;96.96
66576;SHT31;53428;47.686;16.584;2022-12-18T06:23:32;-5.92;96.53
66576;SHT31;53428;47.686;16.584;2022-12-18T06:28:31;-5.95;97.25
66576;SHT31;53428;47.686;16.584;2022-12-18T06:33:30;-5.92;97.27
66576;SHT31;53428;47.686;16.584;2022-12-18T06:38:32;-5.74;96.43
66576;SHT31;53428;47.686;16.584;2022-12-18T06:43:31;-6.19;96.21
66576;SHT31;53428;47.686;16.584;2022-12-18T06:48:31;-6.12;96.60
66576;SHT31;53428;47.686;16.584;2022-12-18T06:53:31;-6.30;96.27
66576;SHT31;53428;47.686;16.584;2022-12-18T06:58:30;-6.07;96.88
66576;SHT31;53428;47.686;16.584;2022-12-18T07:03:30;-6.19;96.45
66576;SHT31;53428;47.686;16.584;2022-12-18T07:08:30;-6.16;96.61
66576;SHT31;53428;47.686;16.584;2022-12-18T07:13:30;-6.14;96.85
66576;SHT31;53428;47.686;16.584;2022-12-18T07:18:30;-5.98;97.12
66576;SHT31;53428;47.686;16.584;2022-12-18T07:23:32;-5.79;96.85
66576;SHT31;53428;47.686;16.584;2022-12-18T07:28:33;-5.71;96.18
66576;SHT31;53428;47.686;16.584;2022-12-18T07:33:35;-5.58;95.91
66576;SHT31;53428;47.686;16.584;2022-12-18T07:38:35;-5.44;95.60
66576;SHT31;53428;47.686;16.584;2022-12-18T07:43:35;-5.34;95.50
66576;SHT31;53428;47.686;16.584;2022-12-18T07:48:34;-5.16;94.71
66576;SHT31;53428;47.686;16.584;2022-12-18T07:53:35;-4.97;94.47
66576;SHT31;53428;47.686;16.584;2022-12-18T07:58:35;-4.97;94.04
66576;SHT31;53428;47.686;16.584;2022-12-18T08:03:34;-4.91;94.00
66576;SHT31;53428;47.686;16.584;2022-12-18T08:08:35;-4.76;93.79
66576;SHT31;53428;47.686;16.584;2022-12-18T08:13:34;-4.54;93.02
66576;SHT31;53428;47.686;16.584;2022-12-18T08:18:35;-4.38;92.86
66576;SHT31;53428;47.686;16.584;2022-12-18T08:23:34;-4.37;92.74
66576;SHT31;53428;47.686;16.584;2022-12-18T08:28:33;-4.26;92.72
66576;SHT31;53428;47.686;16.584;2022-12-18T08:33:34;-4.00;91.30
66576;SHT31;53428;47.686;16.584;2022-12-18T08:38:33;-4.09;91.36
66576;SHT31;53428;47.686;16.584;2022-12-18T08:43:32;-3.86;91.43
66576;SHT31;53428;47.686;16.584;2022-12-18T08:48:51;-3.75;91.20
66576;SHT31;53428;47.686;16.584;2022-12-18T08:53:51;-3.55;91.70
66576;SHT31;53428;47.686;16.584;2022-12-18T08:58:54;-3.37;91.53
66576;SHT31;53428;47.686;16.584;2022-12-18T09:03:53;-2.89;89.98
66576;SHT31;53428;47.686;16.584;2022-12-18T09:08:53;-2.19;88.75
66576;SHT31;53428;47.686;16.584;2022-12-18T09:13:53;-1.99;87.29
66576;SHT31;53428;47.686;16.584;2022-12-18T09:18:52;-1.47;85.29
66576;SHT31;53428;47.686;16.584;2022-12-18T09:23:58;-1.18;84.91
66576;SHT31;53428;47.686;16.584;2022-12-18T09:28:58;-1.69;85.65
66576;SHT31;53428;47.686;16.584;2022-12-18T09:33:58;-1.40;85.47
66576;SHT31;53428;47.686;16.584;2022-12-18T09:38:57;-1.51;85.65
66576;SHT31;53428;47.686;16.584;2022-12-18T09:44:00;-1.30;86.26
66576;SHT31;53428;47.686;16.584;2022-12-18T09:49:02;-1.45;85.81
66576;SHT31;53428;47.686;16.584;2022-12-18T09:54:07;-1.47;85.57
66576;SHT31;53428;47.686;16.584;2022-12-18T09:59:22;-1.40;86.19
66576;SHT31;53428;47.686;16.584;2022-12-18T10:04:23;-0.96;85.22
66576;SHT31;53428;47.686;16.584;2022-12-18T10:09:43;-0.37;83.49
66576;SHT31;53428;47.686;16.584;2022-12-18T10:19:58;-0.47;82.94
66576;SHT31;53428;47.686;16.584;2022-12-18T10:25:06;-0.44;84.37
66576;SHT31;53428;47.686;16.584;2022-12-18T10:30:20;-0.34;84.11
66576;SHT31;53428;47.686;16.584;2022-12-18T10:35:25;-0.04;83.46
66576;SHT31;53428;47.686;16.584;2022-12-18T10:40:25;0.04;82.61
66576;SHT31;53428;47.686;16.584;2022-12-18T10:45:24;0.07;82.99
66576;SHT31;53428;47.686;16.584;2022-12-18T10:50:31;-0.11;83.35
66576;SHT31;53428;47.686;16.584;2022-12-18T10:55:37;-0.07;83.75
66576;SHT31;53428;47.686;16.584;2022-12-18T11:00:36;0.11;82.77
66576;SHT31;53428;47.686;16.584;2022-12-18T11:05:36;-0.06;83.21
66576;SHT31;53428;47.686;16.584;2022-12-18T11:10:37;-0.06;83.28
66576;SHT31;53428;47.686;16.584;2022-12-18T11:15:40;0.15;81.98
66576;SHT31;53428;47.686;16.584;2022-12-18T11:20:39;0.15;81.97
66576;SHT31;53428;47.686;16.584;2022-12-18T11:25:39;0.22;81.91
66576;SHT31;53428;47.686;16.584;2022-12-18T11:30:38;0.28;82.71
66576;SHT31;53428;47.686;16.584;2022-12-18T11:46:38;0.22;83.40
66576;SHT31;53428;47.686;16.584;2022-12-18T11:51:41;0.27;83.58
66576;SHT31;53428;47.686;16.584;2022-12-18T11:56:56;0.20;84.54
66576;SHT31;53428;47.686;16.584;2022-12-18T12:02:02;0.31;83.90
66576;SHT31;53428;47.686;16.584;2022-12-18T12:23:42;0.52;84.77
66576;SHT31;53428;47.686;16.584;2022-12-18T12:39:01;0.27;85.41
66576;SHT31;53428;47.686;16.584;2022-12-18T12:44:07;0.31;85.23
66576;SHT31;53428;47.686;16.584;2022-12-18T12:49:20;0.38;86.20
66576;SHT31;53428;47.686;16.584;2022-12-18T12:54:23;0.66;85.12
66576;SHT31;53428;47.686;16.584;2022-12-18T13:21:02;0.57;85.22
66576;SHT31;53428;47.686;16.584;2022-12-18T13:31:04;0.48;85.34
66576;SHT31;53428;47.686;16.584;2022-12-18T13:36:26;0.28;85.86
66576;SHT31;53428;47.686;16.584;2022-12-18T13:41:27;0.32;85.57
66576;SHT31;53428;47.686;16.584;2022-12-18T13:51:31;0.38;85.48
66576;SHT31;53428;47.686;16.584;2022-12-18T13:56:33;0.21;85.49
66576;SHT31;53428;47.686;16.584;2022-12-18T14:01:33;0.01;86.75
66576;SHT31;53428;47.686;16.584;2022-12-18T14:06:32;0.13;86.63
66576;SHT31;53428;47.686;16.584;2022-12-18T14:11:32;0.15;86.09
66576;SHT31;53428;47.686;16.584;2022-12-18T14:16:31;0.13;86.02
66576;SHT31;53428;47.686;16.584;2022-12-18T14:21:30;0.09;85.84
66576;SHT31;53428;47.686;16.584;2022-12-18T14:26:33;0.00;87.03
66576;SHT31;53428;47.686;16.584;2022-12-18T14:31:32;0.03;86.90
66576;SHT31;53428;47.686;16.584;2022-12-18T14:36:31;-0.15;88.14
66576;SHT31;53428;47.686;16.584;2022-12-18T14:41:33;-0.17;88.49
66576;SHT31;53428;47.686;16.584;2022-12-18T14:46:38;-0.21;88.45
66576;SHT31;53428;47.686;16.584;2022-12-18T14:51:37;-0.31;88.99
66576;SHT31;53428;47.686;16.584;2022-12-18T14:56:43;-0.38;89.27
66576;SHT31;53428;47.686;16.584;2022-12-18T15:12:45;-0.25;89.09
66576;SHT31;53428;47.686;16.584;2022-12-18T15:17:46;-0.21;89.02
66576;SHT31;53428;47.686;16.584;2022-12-18T15:22:47;-0.22;88.89
66576;SHT31;53428;47.686;16.584;2022-12-18T15:27:47;-0.14;88.23
66576;SHT31;53428;47.686;16.584;2022-12-18T15:32:47;-0.24;88.73
66576;SHT31;53428;47.686;16.584;2022-12-18T15:37:49;-0.37;88.87
66576;SHT31;53428;47.686;16.584;2022-12-18T15:42:51;-0.25;88.02
66576;SHT31;53428;47.686;16.584;2022-12-18T15:48:21;-0.38;88.31
66576;SHT31;53428;47.686;16.584;2022-12-18T15:53:21;-0.45;88.69
66576;SHT31;53428;47.686;16.584;2022-12-18T15:58:21;-0.34;87.93
66576;SHT31;53428;47.686;16.584;2022-12-18T16:03:20;-0.29;87.39
66576;SHT31;53428;47.686;16.584;2022-12-18T16:08:20;-0.47;87.34
66576;SHT31;53428;47.686;16.584;2022-12-18T16:13:20;-0.51;87.58
66576;SHT31;53428;47.686;16.584;2022-12-18T16:18:20;-0.55;87.99
66576;SHT31;53428;47.686;16.584;2022-12-18T16:23:20;-0.54;87.57
66576;SHT31;53428;47.686;16.584;2022-12-18T16:28:19;-0.48;87.88
66576;SHT31;53428;47.686;16.584;2022-12-18T16:33:19;-0.48;88.25
66576;SHT31;53428;47.686;16.584;2022-12-18T16:38:19;-0.51;87.86
66576;SHT31;53428;47.686;16.584;2022-12-18T16:43:18;-0.48;88.10
66576;SHT31;53428;47.686;16.584;2022-12-18T16:48:18;-0.41;87.86
66576;SHT31;53428;47.686;16.584;2022-12-18T16:53:18;-0.51;88.01
66576;SHT31;53428;47.686;16.584;2022-12-18T16:58:17;-0.45;87.99
66576;SHT31;53428;47.686;16.584;2022-12-18T17:03:17;-0.44;87.60
66576;SHT31;53428;47.686;16.584;2022-12-18T17:08:17;-0.44;87.76
66576;SHT31;53428;47.686;16.584;2022-12-18T17:13:17;-0.52;88.22
66576;SHT31;53428;47.686;16.584;2022-12-18T17:18:17;-0.61;88.62
66576;SHT31;53428;47.686;16.584;2022-12-18T17:23:17;-0.54;88.73
66576;SHT31;53428;47.686;16.584;2022-12-18T17:28:19;-0.57;88.81
66576;SHT31;53428;47.686;16.584;2022-12-18T17:33:20;-0.45;88.26
66576;SHT31;53428;47.686;16.584;2022-12-18T17:38:22;-0.51;88.93
66576;SHT31;53428;47.686;16.584;2022-12-18T17:43:22;-0.37;88.65
66576;SHT31;53428;47.686;16.584;2022-12-18T17:48:21;-0.45;88.82
66576;SHT31;53428;47.686;16.584;2022-12-18T17:53:26;-0.48;88.87
66576;SHT31;53428;47.686;16.584;2022-12-18T17:58:26;-0.37;88.82
66576;SHT31;53428;47.686;16.584;2022-12-18T18:03:26;-0.35;88.24
66576;SHT31;53428;47.686;16.584;2022-12-18T18:08:27;-0.41;88.31
66576;SHT31;53428;47.686;16.584;2022-12-18T18:13:27;-0.41;88.34
66576;SHT31;53428;47.686;16.584;2022-12-18T18:18:45;-0.42;88.58
66576;SHT31;53428;47.686;16.584;2022-12-18T18:23:45;-0.37;89.21
66576;SHT31;53428;47.686;16.584;2022-12-18T18:28:44;-0.39;89.83
66576;SHT31;53428;47.686;16.584;2022-12-18T18:33:46;-0.48;90.03
66576;SHT31;53428;47.686;16.584;2022-12-18T18:38:48;-0.45;89.61
66576;SHT31;53428;47.686;16.584;2022-12-18T18:43:54;-0.38;89.59
66576;SHT31;53428;47.686;16.584;2022-12-18T18:48:54;-0.34;89.32
66576;SHT31;53428;47.686;16.584;2022-12-18T18:53:54;-0.29;89.20
66576;SHT31;53428;47.686;16.584;2022-12-18T18:58:56;-0.37;89.08
66576;SHT31;53428;47.686;16.584;2022-12-18T19:03:56;-0.29;89.03
66576;SHT31;53428;47.686;16.584;2022-12-18T19:08:56;-0.27;88.43
66576;SHT31;53428;47.686;16.584;2022-12-18T19:13:57;-0.24;88.55
66576;SHT31;53428;47.686;16.584;2022-12-18T19:18:57;-0.22;89.13
66576;SHT31;53428;47.686;16.584;2022-12-18T19:23:58;-0.10;88.63
66576;SHT31;53428;47.686;16.584;2022-12-18T19:29:03;-0.06;88.99
66576;SHT31;53428;47.686;16.584;2022-12-18T19:34:05;-0.20;89.75
66576;SHT31;53428;47.686;16.584;2022-12-18T19:39:13;-0.20;89.95
66576;SHT31;53428;47.686;16.584;2022-12-18T19:44:16;-0.25;90.52
66576;SHT31;53428;47.686;16.584;2022-12-18T19:49:16;-0.21;90.38
66576;SHT31;53428;47.686;16.584;2022-12-18T19:54:16;-0.34;91.09
66576;SHT31;53428;47.686;16.584;2022-12-18T19:59:16;-0.27;90.12
66576;SHT31;53428;47.686;16.584;2022-12-18T20:04:16;-0.45;91.01
66576;SHT31;53428;47.686;16.584;2022-12-18T20:09:20;-0.49;91.17
66576;SHT31;53428;47.686;16.584;2022-12-18T20:14:20;-0.61;91.61
66576;SHT31;53428;47.686;16.584;2022-12-18T20:19:20;-0.76;91.92
66576;SHT31;53428;47.686;16.584;2022-12-18T20:24:20;-0.79;92.01
66576;SHT31;53428;47.686;16.584;2022-12-18T20:29:20;-0.77;91.98
66576;SHT31;53428;47.686;16.584;2022-12-18T20:34:19;-0.87;92.33
66576;SHT31;53428;47.686;16.584;2022-12-18T20:39:19;-0.89;91.89
66576;SHT31;53428;47.686;16.584;2022-12-18T20:44:18;-1.03;92.34
66576;SHT31;53428;47.686;16.584;2022-12-18T20:49:18;-1.16;93.01
66576;SHT31;53428;47.686;16.584;2022-12-18T20:54:21;-1.07;92.78
66576;SHT31;53428;47.686;16.584;2022-12-18T20:59:21;-1.24;92.78
66576;SHT31;53428;47.686;16.584;2022-12-18T21:04:21;-1.41;93.34
66576;SHT31;53428;47.686;16.584;2022-12-18T21:09:21;-1.59;94.23
66576;SHT31;53428;47.686;16.584;2022-12-18T21:14:23;-1.71;94.30
66576;SHT31;53428;47.686;16.584;2022-12-18T21:19:24;-1.81;94.51
66576;SHT31;53428;47.686;16.584;2022-12-18T21:24:26;-1.93;95.12
66576;SHT31;53428;47.686;16.584;2022-12-18T21:29:25;-2.09;95.31
66576;SHT31;53428;47.686;16.584;2022-12-18T21:34:27;-2.20;96.04
66576;SHT31;53428;47.686;16.584;2022-12-18T21:39:33;-2.24;96.62
66576;SHT31;53428;47.686;16.584;2022-12-18T21:44:46;-2.21;96.41
66576;SHT31;53428;47.686;16.584;2022-12-18T21:49:46;-2.40;96.82
66576;SHT31;53428;47.686;16.584;2022-12-18T21:54:46;-2.38;97.27
66576;SHT31;53428;47.686;16.584;2022-12-18T21:59:45;-2.36;97.14
66576;SHT31;53428;47.686;16.584;2022-12-18T22:04:45;-2.14;97.24
66576;SHT31;53428;47.686;16.584;2022-12-18T22:09:45;-2.10;96.84
66576;SHT31;53428;47.686;16.584;2022-12-18T22:14:45;-2.13;96.69
66576;SHT31;53428;47.686;16.584;2022-12-18T22:19:44;-2.27;96.94
66576;SHT31;53428;47.686;16.584;2022-12-18T22:24:43;-2.24;97.07
66576;SHT31;53428;47.686;16.584;2022-12-18T22:29:43;-2.33;97.35
66576;SHT31;53428;47.686;16.584;2022-12-18T22:35:02;-2.23;97.06
66576;SHT31;53428;47.686;16.584;2022-12-18T22:40:03;-2.24;97.06
66576;SHT31;53428;47.686;16.584;2022-12-18T22:45:03;-2.30;97.02
66576;SHT31;53428;47.686;16.584;2022-12-18T22:50:02;-2.34;96.71
66576;SHT31;53428;47.686;16.584;2022-12-18T22:55:01;-2.26;96.82
66576;SHT31;53428;47.686;16.584;2022-12-18T23:00:01;-2.26;96.70
66576;SHT31;53428;47.686;16.584;2022-12-18T23:05:01;-2.26;96.74
66576;SHT31;53428;47.686;16.584;2022-12-18T23:10:00;-2.36;96.86
66576;SHT31;53428;47.686;16.584;2022-12-18T23:14:59;-2.24;96.44
66576;SHT31;53428;47.686;16.584;2022-12-18T23:19:59;-2.30;96.80
66576;SHT31;53428;47.686;16.584;2022-12-18T23:24:58;-2.20;96.66
66576;SHT31;53428;47.686;16.584;2022-12-18T23:29:57;-2.21;96.56
66576;SHT31;53428;47.686;16.584;2022-12-18T23:34:57;-2.30;96.53
66576;SHT31;53428;47.686;16.584;2022-12-18T23:39:56;-2.37;96.88
66576;SHT31;53428;47.686;16.584;2022-12-18T23:44:55;-2.42;97.61
66576;SHT31;53428;47.686;16.584;2022-12-18T23:49:55;-2.20;96.76
66576;SHT31;53428;47.686;16.584;2022-12-18T23:54:54;-2.15;96.24
66576;SHT31;53428;47.686;16.584;2022-12-18T23:59:54;-2.24;96.12
